world map with LKVO marked

LKVO - Airport

This information may not be accurate or current and is not valid for navigation or flight planning. No warranty of fitness for any purpose is made or implied.

flag of Central Bohemiaflag of Czech Republic

Donate via PayPal

Additional information is available on the NEW Great Circle Mapper

Location
City:  Vodochody, Central Bohemia, Czech Republic
ICAO:LKVO

Details
Type:Airport (Aerodrome, Airfield)
Use:Public/Civil
Latitude:50°13'00"N (50.216581)
Longitude:14°23'45"E (14.395806)
Datum:WGS 1984
Elevation:919 ft (280 m)
Runways:1
Longest:8203 × 148 ft (2500 × 45 m)

Time
Timezone:UTC+1 (DST+4)
Local Time:

Weather
METAR:LKVO  041400Z 22004KT 9999 FEW020 01/M03 Q1029 R28///99//

Related Locations
Nearby:
Farthest:CHT: 11759 mi / 18925 km
Waitangi [Tuuta], CIT, NZ

Find:

   beyond  
but within

Other Information
Maps:
Sources:

  


 


Great Circle Mapper   Great Circle Mapper
Great Circle Mapper FAQ   Great Circle Mapper FAQ
  Karl's Home Page
KLSē   KLSē Home
   GC on Facebook
Airlines of the World   Airlines of the World
Donate via PayPal


Copyright © 2004-2019, Karl L. Swartz. All rights reserved.
All trademarks mentioned herein belong to their respective owners.

Please see credits for attribution and copyright information.

Karl Swartz <karl@kls2.com>
  Powered by FreeBSD
Valid HTML 4.01!
Labeled with ICRA
hCard Microformat
Geo Microformat